McAllister, Montana
Current Conditions -  °F | °C
As of 6:56 AM on Monday 22 Dec 2014 (Local Time) from KBZN Reporting Station
Clear Clear  
Wind Chill: 24°   Ceiling: Unl
Heat Index: 31°   Visibility: 10mi
Dew Point: 25°   Wind: 7mph
Humidity: 79%   Direction: 20°NNE
Pressure: 29.86"   Gusts: NA
Location:  45.44°N, 111.73°W
Report Text: KBZN 221356Z AUTO 02006KT 10SM CLR M01/M04 A2986 RMK AO2 SLP139 T10061039
Loading
Personal Weather Stations






























Interactive Weather Map New forecast layout! Learn more

10-Day Weather Forecast

Advertisements
Track Severe Weather on mobile